Ceylon, Indiana
Current Conditions -  °F | °C
As of 12:54 AM on Saturday 29 Nov 2014 (Local Time) from KFWA Reporting Station
Overcast Overcast  
Wind Chill: 26°   Ceiling: 14000
Heat Index: 32°   Visibility: 10mi
Dew Point: 22°   Wind: 7mph
Humidity: 66%   Direction: 190°S
Pressure: 30.01"   Gusts: NA
Location:  40.6087°N, 84.98°W
Report Text: KFWA 290554Z 19006KT 10SM SCT110 OVC140 00/M06 A3001 RMK AO2 SLP172 T00001056 10000 21017 55015
Loading
Personal Weather Stations






























Interactive Weather Map New forecast layout! Learn more

10-Day Weather Forecast

Advertisements
Track Severe Weather on mobile